Time;durP1;ratioP1;P1;durP2;ratioP2;P2;SDS_P1;SDS_P2;PMS_P1;PMS_P2;Temp;Humidity;BMP_temperature;BMP_pressure;BME280_temperature;BME280_humidity;BME280_pressure;Samples;Min_cycle;Max_cycle;Signal;HPM_P1;HPM_P2
2020/12/04 00:01:01;;;;;;;24.07;11.67;;;;;;;-4.29;91.13;99337.63;4940035;29;20465;-73
2020/12/04 00:03:27;;;;;;;22.60;10.47;;;;;;;-4.32;91.60;99330.81;4933465;29;20309;-72
2020/12/04 00:05:53;;;;;;;22.27;11.03;;;;;;;-4.33;91.73;99316.38;4939004;28;20281;-72
2020/12/04 00:08:19;;;;;;;22.37;10.83;;;;;;;-4.36;91.82;99311.28;4935955;29;20302;-73
2020/12/04 00:10:45;;;;;;;20.10;10.13;;;;;;;-4.37;91.76;99312.94;4935737;29;20199;-72
2020/12/04 00:13:11;;;;;;;21.37;11.57;;;;;;;-4.42;91.79;99319.66;4931108;29;20255;-73
2020/12/04 00:15:37;;;;;;;20.77;10.03;;;;;;;-4.45;92.08;99309.47;4937641;29;20191;-71
2020/12/04 00:18:03;;;;;;;18.67;10.17;;;;;;;-4.45;92.99;99306.91;4941033;28;20458;-71
2020/12/04 00:20:29;;;;;;;24.40;11.33;;;;;;;-4.49;92.95;99300.06;4934059;29;20283;-73
2020/12/04 00:22:55;;;;;;;18.23;10.43;;;;;;;-4.49;92.74;99299.22;4940284;28;20231;-72
2020/12/04 00:25:21;;;;;;;24.13;11.53;;;;;;;-4.48;92.75;99306.03;4937748;29;20616;-73
2020/12/04 00:27:47;;;;;;;25.37;12.03;;;;;;;-4.48;92.64;99303.47;4935916;28;21006;-72
2020/12/04 00:30:13;;;;;;;23.60;11.27;;;;;;;-4.50;92.63;99303.44;4932509;29;20203;-73
2020/12/04 00:32:39;;;;;;;21.37;10.40;;;;;;;-4.50;92.77;99311.09;4945268;28;20277;-73
2020/12/04 00:35:05;;;;;;;21.17;10.23;;;;;;;-4.48;92.67;99301.78;4937288;28;20462;-73
2020/12/04 00:37:31;;;;;;;24.23;11.97;;;;;;;-4.50;92.94;99297.47;4933933;29;20211;-73
2020/12/04 00:39:57;;;;;;;23.97;11.97;;;;;;;-4.58;92.56;99298.25;4932960;29;20210;-73
2020/12/04 00:42:23;;;;;;;22.33;10.83;;;;;;;-4.59;93.13;99294.00;4939546;29;20278;-72
2020/12/04 00:44:49;;;;;;;19.03;11.07;;;;;;;-4.61;93.67;99290.59;4933199;29;20207;-72
2020/12/04 00:47:16;;;;;;;21.27;10.53;;;;;;;-4.65;93.49;99285.44;4942059;29;20513;-73
2020/12/04 00:49:42;;;;;;;23.40;11.13;;;;;;;-4.68;93.53;99280.28;4938181;29;20307;-71
2020/12/04 00:52:08;;;;;;;20.73;11.17;;;;;;;-4.68;93.48;99285.38;4935158;28;20490;-72
2020/12/04 00:54:34;;;;;;;25.83;11.37;;;;;;;-4.72;93.96;99281.09;4933961;29;21012;-71
2020/12/04 00:57:02;;;;;;;21.87;11.90;;;;;;;-4.69;93.93;99281.16;4933703;29;20459;-72
2020/12/04 00:59:38;;;;;;;20.00;11.00;;;;;;;-4.63;94.17;99279.50;4933416;29;20490;-73
2020/12/04 01:02:04;;;;;;;24.03;11.80;;;;;;;-4.54;94.32;99277.94;4932825;29;20521;-72
2020/12/04 01:04:31;;;;;;;20.37;11.47;;;;;;;-4.44;94.40;99272.97;4929622;29;20203;-72
2020/12/04 01:06:57;;;;;;;24.80;11.80;;;;;;;-4.32;94.21;99279.94;4933453;28;20959;-73
2020/12/04 01:09:23;;;;;;;23.83;12.57;;;;;;;-4.25;94.03;99278.31;4942034;29;20509;-72
2020/12/04 01:11:51;;;;;;;24.03;11.97;;;;;;;-4.14;93.83;99274.19;4929345;29;20366;-73
2020/12/04 01:14:16;;;;;;;25.30;12.53;;;;;;;-4.05;93.63;99274.28;4935744;29;20207;-72
2020/12/04 01:16:46;;;;;;;29.83;12.93;;;;;;;-3.95;93.33;99269.31;4932915;29;20517;-72
2020/12/04 01:19:12;;;;;;;26.67;13.00;;;;;;;-3.91;93.38;99260.88;4934641;28;20684;-72
2020/12/04 01:21:39;;;;;;;28.57;13.60;;;;;;;-3.84;92.91;99248.19;4931850;29;20486;-73
2020/12/04 01:24:04;;;;;;;23.50;12.20;;;;;;;-3.77;92.91;99244.03;4936304;29;20207;-73
2020/12/04 01:26:30;;;;;;;26.60;13.30;;;;;;;-3.71;92.67;99244.09;4929979;29;20455;-73
2020/12/04 01:28:56;;;;;;;24.33;12.70;;;;;;;-3.63;92.36;99241.59;4933899;29;20215;-73
2020/12/04 01:31:22;;;;;;;26.70;12.53;;;;;;;-3.56;92.10;99235.72;4938758;29;20208;-72
2020/12/04 01:33:48;;;;;;;27.57;13.27;;;;;;;-3.51;92.25;99233.22;4933570;29;20216;-73
2020/12/04 01:36:14;;;;;;;29.20;13.30;;;;;;;-3.45;92.11;99233.25;4929173;29;20245;-72
2020/12/04 01:38:41;;;;;;;33.47;15.07;;;;;;;-3.42;91.80;99235.84;4933265;29;20696;-71
2020/12/04 01:41:07;;;;;;;38.00;17.10;;;;;;;-3.36;91.91;99230.81;4931082;29;20472;-71
2020/12/04 01:43:32;;;;;;;59.37;25.23;;;;;;;-3.31;91.46;99216.38;4933338;29;20511;-72
2020/12/04 01:45:59;;;;;;;44.40;20.60;;;;;;;-3.26;91.32;99209.63;4933035;29;20206;-72
2020/12/04 01:48:25;;;;;;;27.83;14.03;;;;;;;-3.21;90.70;99202.00;4932622;29;20233;-72
2020/12/04 01:50:52;;;;;;;27.13;14.50;;;;;;;-3.15;90.73;99204.63;4935396;29;20471;-72
2020/12/04 01:53:18;;;;;;;29.57;14.30;;;;;;;-3.10;90.41;99202.06;4930700;28;20490;-73
2020/12/04 01:55:45;;;;;;;32.33;14.47;;;;;;;-3.05;90.54;99203.81;4933310;29;20461;-73
2020/12/04 01:58:12;;;;;;;29.00;13.00;;;;;;;-3.00;90.19;99196.19;4931388;28;20204;-73
2020/12/04 02:00:38;;;;;;;31.03;15.27;;;;;;;-2.96;90.19;99192.81;4929928;29;20505;-70
2020/12/04 02:03:06;;;;;;;28.93;15.03;;;;;;;-2.94;89.68;99183.47;4936201;29;20486;-73
2020/12/04 02:05:34;;;;;;;33.37;14.57;;;;;;;-2.90;89.67;99179.25;4931156;29;20217;-72
2020/12/04 02:08:09;;;;;;;27.83;13.50;;;;;;;-2.88;89.85;99172.47;4929846;28;20488;-73
2020/12/04 02:10:39;;;;;;;28.30;13.90;;;;;;;-2.84;89.74;99170.78;4932310;29;20463;-72
2020/12/04 02:13:07;;;;;;;28.77;14.63;;;;;;;-2.80;89.60;99169.94;4930794;29;20473;-73
2020/12/04 02:15:34;;;;;;;25.67;12.93;;;;;;;-2.76;89.18;99157.22;4929890;29;20454;-72
2020/12/04 02:18:03;;;;;;;26.07;12.80;;;;;;;-2.72;88.81;99152.97;4936808;29;20442;-73
2020/12/04 02:20:31;;;;;;;27.97;14.10;;;;;;;-2.70;89.05;99141.91;4933825;29;20729;-73
2020/12/04 02:22:57;;;;;;;28.30;14.87;;;;;;;-2.67;88.82;99138.53;4936067;28;20486;-71
2020/12/04 02:25:23;;;;;;;27.47;14.77;;;;;;;-2.65;88.82;99126.63;4933506;29;20461;-73
2020/12/04 02:27:49;;;;;;;26.57;12.73;;;;;;;-2.62;88.94;99125.78;4938660;29;20211;-73
2020/12/04 02:30:20;;;;;;;25.20;13.17;;;;;;;-2.60;88.76;99116.41;4930518;29;20226;-72
2020/12/04 02:32:46;;;;;;;29.40;13.43;;;;;;;-2.60;88.67;99112.19;4941099;29;20480;-72
2020/12/04 02:35:12;;;;;;;27.17;13.57;;;;;;;-2.55;88.96;99104.53;4937610;29;20242;-73
2020/12/04 02:37:39;;;;;;;25.70;12.60;;;;;;;-2.54;89.11;99096.03;4937638;28;20210;-72
2020/12/04 02:40:05;;;;;;;23.43;12.40;;;;;;;-2.51;88.84;99103.72;4932537;28;20314;-72
2020/12/04 02:42:31;;;;;;;25.23;12.30;;;;;;;-2.49;89.10;99084.97;4938262;28;20226;-72
2020/12/04 02:44:57;;;;;;;25.83;13.20;;;;;;;-2.48;88.82;99076.50;4933915;29;20687;-73
2020/12/04 02:47:25;;;;;;;29.80;14.23;;;;;;;-2.44;88.79;99082.44;4937302;29;20214;-73
2020/12/04 02:49:51;;;;;;;23.73;12.57;;;;;;;-2.40;88.92;99083.31;4937675;29;20207;-73
2020/12/04 02:52:19;;;;;;;25.23;13.13;;;;;;;-2.38;88.60;99084.16;4936060;29;20226;-71
2020/12/04 02:54:47;;;;;;;23.43;12.73;;;;;;;-2.37;88.79;99083.31;4935790;28;20238;-73
2020/12/04 02:57:13;;;;;;;25.43;13.47;;;;;;;-2.36;88.90;99078.19;4933731;29;20471;-71
2020/12/04 02:59:38;;;;;;;22.90;11.87;;;;;;;-2.34;88.21;99083.28;4935256;29;20215;-73
2020/12/04 03:02:04;;;;;;;26.07;14.03;;;;;;;-2.31;88.80;99083.31;4933095;29;20321;-73
2020/12/04 03:04:30;;;;;;;26.10;13.87;;;;;;;-2.31;88.59;99071.38;4936168;29;20202;-72
2020/12/04 03:06:56;;;;;;;27.03;14.00;;;;;;;-2.29;88.37;99063.72;4934979;28;20226;-73
2020/12/04 03:09:22;;;;;;;26.83;12.87;;;;;;;-2.28;88.70;99061.19;4934442;29;20289;-72
2020/12/04 03:11:48;;;;;;;25.23;12.50;;;;;;;-2.26;88.33;99066.28;4946642;28;20233;-72
2020/12/04 03:14:14;;;;;;;23.27;13.30;;;;;;;-2.26;88.06;99062.91;4940785;29;20570;-72
2020/12/04 03:16:40;;;;;;;26.57;13.80;;;;;;;-2.24;88.03;99058.63;4936825;28;20211;-70
2020/12/04 03:19:06;;;;;;;22.63;12.30;;;;;;;-2.22;88.50;99051.81;4933927;29;20204;-71
2020/12/04 03:21:32;;;;;;;26.50;14.13;;;;;;;-2.22;88.33;99041.63;4934390;29;20227;-73
2020/12/04 03:23:58;;;;;;;25.97;14.00;;;;;;;-2.21;88.35;99033.97;4935174;29;20266;-72
2020/12/04 03:26:23;;;;;;;30.07;14.87;;;;;;;-2.20;88.64;99035.66;4934751;29;20239;-73
2020/12/04 03:28:50;;;;;;;33.80;15.50;;;;;;;-2.17;88.66;99034.81;4933556;29;20258;-73
2020/12/04 03:31:16;;;;;;;25.03;13.87;;;;;;;-2.16;88.53;99037.38;4937880;29;20200;-70
2020/12/04 03:33:42;;;;;;;26.53;13.47;;;;;;;-2.13;88.61;99039.06;4934925;29;20209;-71
2020/12/04 03:36:08;;;;;;;27.60;13.73;;;;;;;-2.11;88.80;99045.00;4938539;28;20696;-72
2020/12/04 03:38:34;;;;;;;27.37;13.43;;;;;;;-2.08;88.91;99042.47;4932212;29;20621;-72
2020/12/04 03:40:59;;;;;;;28.43;13.90;;;;;;;-2.07;88.85;99036.50;4935298;29;20672;-72
2020/12/04 03:43:25;;;;;;;26.43;13.43;;;;;;;-2.04;88.63;99033.09;4932455;29;20726;-75
2020/12/04 03:45:52;;;;;;;26.13;13.43;;;;;;;-2.02;88.84;99028.81;4938030;28;20203;-73
2020/12/04 03:48:18;;;;;;;27.73;13.63;;;;;;;-2.02;88.79;99021.16;4932993;29;20211;-73
2020/12/04 03:50:44;;;;;;;23.90;13.60;;;;;;;-2.00;88.94;99015.22;4934948;29;20261;-72
2020/12/04 03:53:10;;;;;;;28.97;15.00;;;;;;;-1.98;88.85;99020.34;4931638;29;20223;-73
2020/12/04 03:55:36;;;;;;;26.97;13.23;;;;;;;-1.95;88.97;99018.63;4932791;29;20199;-72
2020/12/04 03:58:01;;;;;;;28.30;15.77;;;;;;;-1.93;89.29;99018.63;4932432;29;20215;-72
2020/12/04 04:00:27;;;;;;;29.83;15.40;;;;;;;-1.92;89.39;99010.09;4933710;29;20207;-72
2020/12/04 04:02:54;;;;;;;27.47;13.10;;;;;;;-1.88;88.97;99014.38;4935548;29;20226;-72
2020/12/04 04:05:20;;;;;;;25.93;13.30;;;;;;;-1.84;89.55;99020.31;4929629;29;20210;-72
2020/12/04 04:07:46;;;;;;;27.23;14.77;;;;;;;-1.83;89.72;99010.09;4934090;29;20216;-72
2020/12/04 04:10:11;;;;;;;27.43;14.70;;;;;;;-1.82;89.65;99008.38;4931448;29;20275;-72
2020/12/04 04:12:37;;;;;;;29.33;13.43;;;;;;;-1.81;89.59;99013.50;4936673;29;20222;-71
2020/12/04 04:15:03;;;;;;;27.70;14.10;;;;;;;-1.79;89.55;99009.22;4930503;28;20321;-72
2020/12/04 04:17:29;;;;;;;23.40;12.80;;;;;;;-1.78;89.54;99013.47;4940236;28;20199;-73
2020/12/04 04:19:56;;;;;;;22.63;13.27;;;;;;;-1.75;89.60;99010.91;4932762;29;20207;-72
2020/12/04 04:22:22;;;;;;;26.53;13.57;;;;;;;-1.74;89.85;99004.97;4933402;29;20237;-71
2020/12/04 04:24:47;;;;;;;22.93;12.57;;;;;;;-1.73;89.81;99001.53;4934947;29;20207;-73
2020/12/04 04:27:13;;;;;;;24.57;12.47;;;;;;;-1.69;89.72;98998.97;4935156;29;20276;-73
2020/12/04 04:29:39;;;;;;;22.63;12.13;;;;;;;-1.68;89.66;99003.25;4933990;28;20230;-73
2020/12/04 04:32:05;;;;;;;24.13;12.67;;;;;;;-1.67;89.63;99000.69;4934101;28;20223;-73
2020/12/04 04:34:31;;;;;;;25.03;13.03;;;;;;;-1.65;89.49;98990.44;4934959;29;20203;-72
2020/12/04 04:36:58;;;;;;;24.07;12.63;;;;;;;-1.64;89.87;98992.16;4929924;29;20660;-72
2020/12/04 04:39:24;;;;;;;28.93;13.50;;;;;;;-1.64;89.90;98985.31;4934859;29;20668;-73
2020/12/04 04:41:55;;;;;;;24.70;12.23;;;;;;;-1.63;89.99;98989.59;4933894;28;20260;-73
2020/12/04 04:44:21;;;;;;;25.20;13.07;;;;;;;-1.62;90.03;98995.53;4929020;29;20667;-72
2020/12/04 04:46:51;;;;;;;24.30;13.33;;;;;;;-1.62;90.18;98988.75;4930713;29;20211;-72
2020/12/04 04:49:29;;;;;;;23.97;12.43;;;;;;;-1.62;90.24;98991.31;4933772;29;20234;-73
2020/12/04 04:51:57;;;;;;;26.53;13.27;;;;;;;-1.60;90.09;98988.72;4932301;29;20229;-72
2020/12/04 04:54:24;;;;;;;25.30;13.23;;;;;;;-1.60;90.16;98984.47;4933920;28;20656;-73
2020/12/04 04:56:51;;;;;;;28.87;13.47;;;;;;;-1.62;90.10;98973.41;4929894;29;20226;-73
2020/12/04 04:59:17;;;;;;;26.53;13.87;;;;;;;-1.59;90.18;98977.66;4937335;29;20195;-73
2020/12/04 05:01:44;;;;;;;27.40;13.50;;;;;;;-1.59;90.29;98977.66;4931622;29;20290;-70
2020/12/04 05:04:09;;;;;;;27.27;13.73;;;;;;;-1.59;90.15;98973.38;4932260;29;20191;-73
2020/12/04 05:06:36;;;;;;;27.37;14.17;;;;;;;-1.57;89.99;98971.66;4929907;29;20617;-70
2020/12/04 05:09:04;;;;;;;22.97;12.50;;;;;;;-1.55;90.44;98979.34;4930448;29;20226;-73
2020/12/04 05:11:32;;;;;;;23.47;13.47;;;;;;;-1.55;90.46;98972.53;4933859;29;20223;-72
2020/12/04 05:14:15;;;;;;;22.87;12.33;;;;;;;-1.54;90.34;98965.72;4931829;29;20191;-73
2020/12/04 05:16:43;;;;;;;24.00;12.80;;;;;;;-1.53;90.27;98962.28;4929885;29;20210;-73
2020/12/04 05:19:10;;;;;;;24.70;12.70;;;;;;;-1.49;90.23;98969.09;4931154;29;20234;-72
2020/12/04 05:21:37;;;;;;;26.27;13.10;;;;;;;-1.49;90.60;98955.47;4929683;29;20229;-73
2020/12/04 05:24:03;;;;;;;29.27;14.37;;;;;;;-1.51;90.46;98958.03;4926238;29;20211;-71
2020/12/04 05:26:30;;;;;;;31.03;13.93;;;;;;;-1.52;90.35;98952.06;4931242;29;20210;-73
2020/12/04 05:28:57;;;;;;;25.93;13.37;;;;;;;-1.50;90.62;98948.66;4929416;29;20738;-71
2020/12/04 05:31:29;;;;;;;26.57;14.13;;;;;;;-1.52;90.92;98944.38;4935282;29;20201;-73
2020/12/04 05:33:56;;;;;;;24.43;12.97;;;;;;;-1.49;90.86;98942.69;4930192;29;20203;-73
2020/12/04 05:36:27;;;;;;;22.40;12.77;;;;;;;-1.47;91.46;98930.75;4930489;29;20211;-73
2020/12/04 05:38:55;;;;;;;21.93;12.73;;;;;;;-1.47;91.04;98934.16;4926302;29;20203;-73
2020/12/04 05:41:22;;;;;;;24.70;13.57;;;;;;;-1.47;91.16;98930.75;4930714;29;20556;-72
2020/12/04 05:43:49;;;;;;;26.20;14.60;;;;;;;-1.46;91.15;98929.88;4928964;29;20230;-72
2020/12/04 05:46:19;;;;;;;28.03;13.67;;;;;;;-1.44;90.98;98931.59;4933395;29;20207;-73
2020/12/04 05:48:58;;;;;;;27.10;13.13;;;;;;;-1.44;90.96;98923.91;4934116;29;20262;-70
2020/12/04 05:51:26;;;;;;;21.83;12.37;;;;;;;-1.43;91.25;98919.66;4930391;29;20211;-72
2020/12/04 05:53:53;;;;;;;27.40;12.67;;;;;;;-1.44;91.15;98913.69;4927132;29;20214;-73
2020/12/04 05:56:19;;;;;;;24.77;12.50;;;;;;;-1.44;91.11;98903.47;4932341;29;20676;-73
2020/12/04 05:58:46;;;;;;;23.70;12.80;;;;;;;-1.43;91.37;98907.69;4927593;29;20211;-72
2020/12/04 06:01:14;;;;;;;23.27;12.37;;;;;;;-1.43;91.45;98911.97;4931627;29;20203;-72
2020/12/04 06:03:40;;;;;;;22.17;12.17;;;;;;;-1.43;91.65;98923.03;4931321;29;20191;-71
2020/12/04 06:06:08;;;;;;;20.43;11.33;;;;;;;-1.40;91.79;98928.16;4928726;29;20210;-73
2020/12/04 06:08:38;;;;;;;23.43;12.83;;;;;;;-1.39;91.72;98923.88;4924796;28;20215;-73
2020/12/04 06:11:04;;;;;;;22.67;12.17;;;;;;;-1.35;91.93;98928.97;4931148;29;20627;-72
2020/12/04 06:13:35;;;;;;;21.07;12.07;;;;;;;-1.31;92.20;98927.25;4933224;29;20226;-73
2020/12/04 06:16:11;;;;;;;24.13;12.27;;;;;;;-1.28;92.19;98928.97;4925725;29;20203;-73
2020/12/04 06:18:37;;;;;;;22.87;12.40;;;;;;;-1.25;92.09;98932.34;4928906;29;20199;-72
2020/12/04 06:21:03;;;;;;;25.77;12.23;;;;;;;-1.24;92.16;98925.53;4926291;28;20202;-73
2020/12/04 06:23:29;;;;;;;21.43;12.53;;;;;;;-1.21;92.48;98923.78;4930103;29;20290;-73
2020/12/04 06:26:00;;;;;;;25.83;12.53;;;;;;;-1.16;92.46;98923.78;4928887;28;20241;-73
2020/12/04 06:28:28;;;;;;;23.93;12.47;;;;;;;-1.13;92.24;98920.34;4933238;29;20250;-72
2020/12/04 06:31:15;;;;;;;20.40;11.37;;;;;;;-1.08;92.58;98918.59;4923566;29;20204;-73
2020/12/04 06:33:43;;;;;;;21.50;10.70;;;;;;;-1.08;92.99;98901.53;4931074;29;20203;-71
2020/12/04 06:36:11;;;;;;;21.37;11.77;;;;;;;-1.05;93.09;98906.66;4927297;29;20347;-71
2020/12/04 06:38:46;;;;;;;18.20;11.53;;;;;;;-0.95;93.25;98909.97;4926611;29;20210;-71
2020/12/04 06:41:19;;;;;;;23.60;11.57;;;;;;;-0.89;93.22;98916.78;4928916;29;20311;-71
2020/12/04 06:43:46;;;;;;;21.13;11.03;;;;;;;-0.88;93.28;98923.59;4933171;29;20203;-71
2020/12/04 06:46:27;;;;;;;20.40;10.40;;;;;;;-0.87;92.91;98917.63;4927933;29;20214;-71
2020/12/04 06:49:23;;;;;;;22.43;11.23;;;;;;;-0.82;93.38;98926.94;4934207;29;20215;-72
2020/12/04 06:51:59;;;;;;;20.43;11.10;;;;;;;-0.81;92.97;98931.22;4928601;29;20242;-72
2020/12/04 06:54:25;;;;;;;20.57;10.70;;;;;;;-0.79;93.01;98933.78;4931026;29;20226;-71
2020/12/04 06:56:51;;;;;;;22.10;11.63;;;;;;;-0.81;93.10;98936.34;4929690;29;20212;-72
2020/12/04 06:59:21;;;;;;;19.90;11.00;;;;;;;-0.81;93.21;98938.03;4932330;29;20214;-71
2020/12/04 07:01:47;;;;;;;19.07;10.30;;;;;;;-0.79;93.44;98939.75;4928549;29;20250;-71
2020/12/04 07:04:13;;;;;;;18.97;11.20;;;;;;;-0.63;94.28;98937.06;4928133;29;20639;-72
2020/12/04 07:06:39;;;;;;;15.77;9.03;;;;;;;-0.53;94.28;98936.09;4935487;29;20200;-71
2020/12/04 07:09:06;;;;;;;17.27;9.27;;;;;;;-0.36;94.86;98938.53;4934796;29;20254;-71
2020/12/04 07:11:32;;;;;;;15.60;8.87;;;;;;;-0.27;94.72;98935.88;4934102;28;20233;-71
2020/12/04 07:13:58;;;;;;;14.27;9.07;;;;;;;-0.14;94.43;98939.19;4930126;29;20211;-71
2020/12/04 07:16:24;;;;;;;20.13;10.60;;;;;;;-0.18;93.02;98946.94;4933479;29;20203;-71
2020/12/04 07:18:52;;;;;;;22.63;11.53;;;;;;;-0.23;92.99;98942.69;4933138;29;20741;-71
2020/12/04 07:21:18;;;;;;;21.47;11.77;;;;;;;-0.25;92.60;98953.81;4944595;28;20207;-71
2020/12/04 07:23:44;;;;;;;20.47;11.23;;;;;;;-0.26;92.70;98949.56;4931309;29;20199;-72
2020/12/04 07:26:17;;;;;;;18.03;10.93;;;;;;;-0.24;93.41;98946.13;4937995;29;20278;-72
2020/12/04 07:28:44;;;;;;;19.03;10.60;;;;;;;-0.16;93.86;98952.88;4931576;29;20218;-71
2020/12/04 07:31:15;;;;;;;19.00;9.80;;;;;;;-0.11;93.92;98958.81;4935142;29;20203;-71
2020/12/04 07:33:56;;;;;;;18.53;10.40;;;;;;;-0.06;94.03;98954.50;4931292;29;20208;-71
2020/12/04 07:36:22;;;;;;;18.17;9.87;;;;;;;-0.01;94.01;98963.00;4932576;29;20211;-71
2020/12/04 07:38:50;;;;;;;18.63;9.93;;;;;;;0.04;94.20;98962.94;4928049;29;20203;-71
2020/12/04 07:41:25;;;;;;;15.17;9.53;;;;;;;0.07;93.76;98957.78;4931609;29;20560;-72
2020/12/04 07:43:51;;;;;;;16.40;9.67;;;;;;;0.11;93.77;98956.91;4931207;29;20576;-71
2020/12/04 07:46:20;;;;;;;16.50;9.87;;;;;;;0.17;93.74;98964.50;4930206;29;20205;-72
2020/12/04 07:49:04;;;;;;;18.93;9.73;;;;;;;0.23;93.54;98961.91;4929019;29;20227;-71
2020/12/04 07:51:33;;;;;;;17.23;8.90;;;;;;;0.26;93.28;98955.88;4934621;29;20305;-71
2020/12/04 07:53:59;;;;;;;17.27;9.63;;;;;;;0.30;93.43;98954.97;4931400;28;20711;-71
2020/12/04 07:56:27;;;;;;;16.83;9.37;;;;;;;0.36;93.15;98962.59;4931081;29;20648;-72
2020/12/04 07:58:58;;;;;;;15.57;9.70;;;;;;;0.40;92.99;98968.53;4928456;29;20218;-72
2020/12/04 08:01:24;;;;;;;17.67;9.13;;;;;;;0.46;92.96;98973.59;4927546;29;20210;-71
2020/12/04 08:03:50;;;;;;;16.67;9.93;;;;;;;0.49;92.97;98960.72;4932228;29;20215;-71
2020/12/04 08:06:21;;;;;;;21.03;12.00;;;;;;;0.54;92.93;98969.22;4929951;29;20205;-72
2020/12/04 08:08:47;;;;;;;17.80;10.80;;;;;;;0.57;92.58;98969.19;4932512;29;20223;-71
2020/12/04 08:11:15;;;;;;;21.43;11.57;;;;;;;0.64;92.75;98964.84;4928893;29;20203;-71
2020/12/04 08:13:45;;;;;;;16.97;10.97;;;;;;;0.69;92.32;98963.06;4937588;29;20274;-72
2020/12/04 08:16:11;;;;;;;20.73;10.63;;;;;;;0.72;92.20;98960.44;4933868;28;20225;-72
2020/12/04 08:18:36;;;;;;;21.03;12.17;;;;;;;0.79;91.85;98954.38;4931204;29;20195;-72
2020/12/04 08:21:06;;;;;;;15.97;9.73;;;;;;;0.85;91.54;98954.31;4929231;28;20201;-71
2020/12/04 08:23:32;;;;;;;18.20;9.97;;;;;;;0.89;91.77;98960.25;4928567;29;20315;-72
2020/12/04 08:25:58;;;;;;;18.83;11.17;;;;;;;0.95;91.28;98970.44;4928003;28;20203;-72
2020/12/04 08:28:24;;;;;;;19.07;11.33;;;;;;;1.02;90.87;98968.63;4933800;29;20270;-72
2020/12/04 08:30:50;;;;;;;17.30;10.03;;;;;;;1.07;90.77;98971.97;4929634;29;20203;-72
2020/12/04 08:33:16;;;;;;;15.67;9.63;;;;;;;1.09;90.38;98971.09;4932882;28;20243;-71
2020/12/04 08:35:44;;;;;;;20.10;11.00;;;;;;;1.15;90.77;98967.59;4929503;29;20267;-72
2020/12/04 08:38:11;;;;;;;17.20;10.17;;;;;;;1.18;90.70;98975.25;4931001;29;20192;-71
2020/12/04 08:40:39;;;;;;;23.23;11.93;;;;;;;1.24;90.10;98982.00;4931121;29;20199;-71
2020/12/04 08:43:10;;;;;;;19.83;11.03;;;;;;;1.26;90.31;98980.25;4927630;29;20705;-73
2020/12/04 08:45:37;;;;;;;17.13;10.90;;;;;;;1.27;90.11;98979.41;4933377;29;20204;-71
2020/12/04 08:48:09;;;;;;;21.70;11.23;;;;;;;1.30;89.90;98987.03;4930241;29;20693;-72
2020/12/04 08:50:41;;;;;;;19.80;10.57;;;;;;;1.32;89.86;98970.75;4934685;29;20257;-71
2020/12/04 08:53:09;;;;;;;19.30;11.63;;;;;;;1.30;89.75;98972.50;4929016;29;20225;-71
2020/12/04 08:55:35;;;;;;;16.00;9.57;;;;;;;1.32;89.46;98972.47;4934457;29;20803;-71
2020/12/04 08:58:00;;;;;;;16.63;9.87;;;;;;;1.32;89.42;98965.63;4931766;28;20230;-73
2020/12/04 09:00:28;;;;;;;16.03;10.13;;;;;;;1.33;89.35;98969.88;4934393;29;20222;-73
2020/12/04 09:02:54;;;;;;;17.20;9.67;;;;;;;1.37;89.25;98965.53;4928641;29;20228;-73
2020/12/04 09:05:21;;;;;;;15.27;8.97;;;;;;;1.36;89.19;98960.44;4925919;29;20209;-72
2020/12/04 09:07:47;;;;;;;15.43;8.83;;;;;;;1.39;89.04;98958.69;4928176;28;20223;-72
2020/12/04 09:10:14;;;;;;;17.63;9.80;;;;;;;1.42;88.90;98956.03;4929781;29;20196;-71
2020/12/04 09:12:41;;;;;;;18.23;9.03;;;;;;;1.42;89.01;98948.34;4930820;29;20239;-71
2020/12/04 09:15:09;;;;;;;14.73;8.80;;;;;;;1.49;89.04;98956.78;4931054;29;20209;-71
2020/12/04 09:17:35;;;;;;;18.27;8.80;;;;;;;1.52;88.54;98947.31;4930316;29;20201;-72
2020/12/04 09:20:01;;;;;;;19.30;9.77;;;;;;;1.57;88.69;98941.28;4931397;29;20208;-72
2020/12/04 09:22:28;;;;;;;16.37;9.90;;;;;;;1.60;88.64;98934.38;4930770;29;20579;-71
2020/12/04 09:24:54;;;;;;;17.77;10.13;;;;;;;1.64;88.68;98927.47;4934341;29;20204;-73
2020/12/04 09:27:20;;;;;;;16.50;9.50;;;;;;;1.71;88.43;98936.75;4934203;29;20211;-74
2020/12/04 09:29:48;;;;;;;19.00;10.03;;;;;;;1.80;88.17;98920.31;4930626;29;20261;-72
2020/12/04 09:32:15;;;;;;;24.37;12.07;;;;;;;1.89;87.86;98926.13;4931105;29;20261;-72
2020/12/04 09:34:43;;;;;;;17.90;9.63;;;;;;;1.96;87.16;98905.47;4927455;29;20600;-72
2020/12/04 09:37:17;;;;;;;19.03;10.27;;;;;;;2.00;87.17;98909.66;4928533;29;20204;-73
2020/12/04 09:39:45;;;;;;;19.37;10.27;;;;;;;2.12;86.56;98906.88;4928846;29;20197;-73
2020/12/04 09:42:13;;;;;;;17.17;9.57;;;;;;;2.17;86.61;98906.78;4927737;29;20237;-72
2020/12/04 09:44:39;;;;;;;17.03;9.83;;;;;;;2.22;86.30;98903.25;4931984;29;20787;-73
2020/12/04 09:47:05;;;;;;;15.90;9.70;;;;;;;2.28;85.83;98910.84;4931518;29;20199;-72
2020/12/04 09:49:32;;;;;;;19.10;10.77;;;;;;;2.32;86.03;98915.91;4926291;29;20324;-72
2020/12/04 09:51:58;;;;;;;16.00;9.93;;;;;;;2.36;85.73;98915.84;4931592;29;20627;-73
2020/12/04 09:54:25;;;;;;;19.30;10.10;;;;;;;2.36;85.67;98913.28;4929288;29;20352;-71
2020/12/04 09:56:53;;;;;;;18.63;9.97;;;;;;;2.41;85.81;98908.00;4928043;29;20200;-72
2020/12/04 09:59:19;;;;;;;19.07;9.40;;;;;;;2.46;85.40;98899.34;4930645;29;20266;-72
2020/12/04 10:01:48;;;;;;;18.30;9.23;;;;;;;2.47;85.33;98903.59;4929412;29;20300;-72
2020/12/04 10:04:14;;;;;;;13.70;8.33;;;;;;;2.49;85.33;98897.59;4927329;29;20203;-72
2020/12/04 10:06:40;;;;;;;19.10;10.03;;;;;;;2.47;85.49;98905.34;4926742;29;20207;-72
2020/12/04 10:09:06;;;;;;;16.87;9.23;;;;;;;2.41;85.32;98900.28;4929948;29;20520;-72
2020/12/04 10:11:31;;;;;;;15.57;8.90;;;;;;;2.39;84.97;98900.34;4926980;29;20301;-72
2020/12/04 10:13:58;;;;;;;16.00;8.93;;;;;;;2.39;84.99;98908.06;4932764;29;20206;-72
2020/12/04 10:16:24;;;;;;;15.10;8.60;;;;;;;2.37;85.26;98909.81;4929454;29;20211;-72
2020/12/04 10:18:50;;;;;;;18.13;9.00;;;;;;;2.38;85.25;98901.22;4928271;28;20198;-72
2020/12/04 10:21:18;;;;;;;15.87;9.27;;;;;;;2.38;85.30;98901.22;4929555;29;20211;-72
2020/12/04 10:23:44;;;;;;;16.77;9.13;;;;;;;2.40;85.24;98904.59;4931610;29;20207;-72
2020/12/04 10:26:10;;;;;;;19.53;9.47;;;;;;;2.43;85.03;98909.69;4929227;29;20209;-71
2020/12/04 10:28:36;;;;;;;16.87;9.33;;;;;;;2.47;84.68;98906.16;4930563;28;20281;-71
2020/12/04 10:31:02;;;;;;;16.47;9.10;;;;;;;2.49;85.24;98902.72;4930390;28;20228;-72
2020/12/04 10:33:28;;;;;;;17.70;9.17;;;;;;;2.52;84.57;98913.81;4929116;29;20242;-72
2020/12/04 10:35:54;;;;;;;15.27;8.63;;;;;;;2.53;84.41;98907.75;4928197;29;20200;-72
2020/12/04 10:38:20;;;;;;;18.17;9.47;;;;;;;2.55;84.25;98905.16;4930411;29;20199;-72
2020/12/04 10:40:46;;;;;;;15.77;8.67;;;;;;;2.55;84.34;98900.88;4932792;29;20203;-73
2020/12/04 10:43:12;;;;;;;16.07;8.93;;;;;;;2.55;84.58;98903.47;4928289;29;20253;-74
2020/12/04 10:45:37;;;;;;;16.40;8.80;;;;;;;2.56;84.16;98892.25;4935723;28;20294;-73
2020/12/04 10:48:04;;;;;;;17.97;9.20;;;;;;;2.59;84.42;98896.53;4933058;29;20316;-74
2020/12/04 10:50:30;;;;;;;14.67;9.03;;;;;;;2.62;83.85;98899.88;4934478;29;20211;-74
2020/12/04 10:52:56;;;;;;;15.80;8.93;;;;;;;2.64;84.30;98899.84;4931192;29;20219;-71
2020/12/04 10:55:22;;;;;;;17.67;8.97;;;;;;;2.64;84.38;98902.41;4936949;29;20222;-73
2020/12/04 10:57:48;;;;;;;16.77;9.77;;;;;;;2.66;84.32;98905.81;4934445;29;20218;-72
2020/12/04 11:00:13;;;;;;;20.30;10.50;;;;;;;2.66;84.42;98903.22;4934751;29;20192;-73
2020/12/04 11:02:41;;;;;;;26.20;12.90;;;;;;;2.69;84.02;98905.75;4930017;29;20223;-72
2020/12/04 11:07:51;;;;;;;22.43;11.17;;;;;;;2.77;83.65;98906.41;4937328;28;20213;-73
2020/12/04 11:10:17;;;;;;;20.33;11.20;;;;;;;2.78;83.92;98900.38;4932324;29;20721;-73
2020/12/04 11:12:43;;;;;;;18.43;10.43;;;;;;;2.79;83.73;98907.22;4927976;29;20216;-73
2020/12/04 11:15:08;;;;;;;17.27;9.80;;;;;;;2.83;83.40;98908.00;4932790;29;20211;-73
2020/12/04 11:17:34;;;;;;;21.60;10.70;;;;;;;2.86;83.35;98909.66;4933221;29;20264;-74
2020/12/04 11:20:00;;;;;;;19.93;10.67;;;;;;;2.89;83.38;98912.19;4934913;29;20198;-73
2020/12/04 11:22:32;;;;;;;18.77;10.03;;;;;;;2.90;83.60;98906.13;4931922;29;20490;-74
2020/12/04 11:24:58;;;;;;;23.27;11.77;;;;;;;2.92;83.17;98902.66;4930977;29;20199;-74